Time;durP1;ratioP1;P1;durP2;ratioP2;P2;SDS_P1;SDS_P2;PMS_P1;PMS_P2;Temp;Humidity;BMP_temperature;BMP_pressure;BME280_temperature;BME280_humidity;BME280_pressure;Samples;Min_cycle;Max_cycle;Signal;HPM_P1;HPM_P2
2022/04/21 00:01:08;;;;;;;1.40;1.10;;;20.00;46.80;;;;;;5077458;27;44813;-60
2022/04/21 00:03:35;;;;;;;1.00;1.00;;;20.00;46.80;;;;;;5085062;27;43348;-60
2022/04/21 00:06:03;;;;;;;1.35;1.25;;;20.00;46.90;;;;;;5082658;27;43442;-61
2022/04/21 00:08:30;;;;;;;1.02;0.93;;;20.00;46.80;;;;;;5076247;27;43567;-60
2022/04/21 00:10:57;;;;;;;2.70;1.33;;;20.00;46.80;;;;;;5084614;27;44799;-59
2022/04/21 00:13:25;;;;;;;1.13;1.02;;;20.00;46.90;;;;;;5089512;27;43448;-61
2022/04/21 00:15:52;;;;;;;1.10;1.08;;;20.00;46.90;;;;;;5089060;27;43528;-60
2022/04/21 00:18:20;;;;;;;1.08;1.08;;;19.90;46.90;;;;;;5087067;27;43565;-60
2022/04/21 00:20:47;;;;;;;1.30;1.20;;;19.90;46.80;;;;;;5103760;27;44068;-61
2022/04/21 00:23:26;;;;;;;1.20;1.10;;;19.90;46.90;;;;;;5087873;27;43860;-60
2022/04/21 00:26:01;;;;;;;1.30;1.20;;;19.90;46.90;;;;;;5065405;28;43496;-61
2022/04/21 00:28:29;;;;;;;0.75;0.75;;;19.90;47.00;;;;;;5079434;27;43423;-60
2022/04/21 00:30:56;;;;;;;1.38;1.27;;;19.90;47.00;;;;;;5079858;27;44211;-60
2022/04/21 00:33:24;;;;;;;1.40;1.33;;;19.90;47.10;;;;;;5070775;27;43890;-60
2022/04/21 00:35:51;;;;;;;1.83;1.45;;;19.80;47.00;;;;;;5076036;27;43466;-60
2022/04/21 00:38:19;;;;;;;1.35;1.25;;;19.80;47.40;;;;;;5068628;27;43529;-60
2022/04/21 00:40:49;;;;;;;1.40;1.30;;;19.80;47.10;;;;;;5088371;27;44980;-60
2022/04/21 00:43:16;;;;;;;1.20;1.10;;;19.80;47.10;;;;;;5073961;27;43430;-61
2022/04/21 00:45:44;;;;;;;1.40;1.30;;;19.80;47.10;;;;;;5067145;27;43589;-60
2022/04/21 00:48:11;;;;;;;1.83;1.20;;;19.80;47.10;;;;;;5060968;28;43433;-60
2022/04/21 00:50:39;;;;;;;1.20;1.10;;;19.80;47.10;;;;;;5078353;27;44007;-61
2022/04/21 00:53:07;;;;;;;1.45;1.35;;;19.80;47.00;;;;;;5081065;27;43808;-62
2022/04/21 00:55:38;;;;;;;1.42;1.20;;;19.70;47.00;;;;;;5074460;27;43483;-60
2022/04/21 00:58:07;;;;;;;1.35;1.25;;;19.70;47.00;;;;;;5081980;27;43514;-60
2022/04/21 01:00:35;;;;;;;1.23;1.13;;;19.80;47.10;;;;;;5083019;27;45222;-60
2022/04/21 01:03:04;;;;;;;1.50;1.40;;;19.70;47.10;;;;;;5072521;27;43725;-60
2022/04/21 01:05:35;;;;;;;1.27;1.17;;;19.70;47.10;;;;;;5077227;27;43506;-60
2022/04/21 01:08:08;;;;;;;1.33;1.30;;;19.70;47.00;;;;;;5078838;27;44203;-60
2022/04/21 01:10:39;;;;;;;1.50;1.40;;;19.70;47.20;;;;;;5089230;27;44951;-61
2022/04/21 01:13:09;;;;;;;1.58;1.48;;;19.60;47.10;;;;;;5082936;28;43822;-60
2022/04/21 01:15:39;;;;;;;1.35;1.30;;;19.60;47.80;;;;;;5085085;27;43470;-60
2022/04/21 01:18:06;;;;;;;1.33;1.30;;;19.60;47.20;;;;;;5065144;27;43522;-60
2022/04/21 01:20:34;;;;;;;1.08;1.08;;;19.60;47.10;;;;;;5089718;27;45306;-59
2022/04/21 01:23:01;;;;;;;1.10;1.08;;;19.60;47.20;;;;;;5083139;28;43492;-61
2022/04/21 01:25:37;;;;;;;2.22;1.50;;;19.60;47.20;;;;;;5080444;27;43481;-59
2022/04/21 01:28:06;;;;;;;1.25;1.20;;;19.60;47.20;;;;;;5082058;27;43912;-59
2022/04/21 01:30:34;;;;;;;1.77;1.40;;;19.60;47.20;;;;;;5074419;27;43903;-61
2022/04/21 01:33:01;;;;;;;1.60;1.50;;;19.60;47.20;;;;;;5068272;27;43543;-60
2022/04/21 01:35:28;;;;;;;1.80;1.30;;;19.50;47.20;;;;;;5075077;27;43471;-60
2022/04/21 01:43:27;;;;;;;1.48;1.38;;;19.50;47.30;;;;;;5077516;27;43828;-61
2022/04/21 01:45:55;;;;;;;1.10;1.10;;;19.50;47.30;;;;;;5078684;27;44059;-60
2022/04/21 01:48:22;;;;;;;1.45;1.35;;;19.50;47.30;;;;;;5077852;27;43528;-61
2022/04/21 01:50:49;;;;;;;1.50;1.40;;;19.50;47.10;;;;;;5079314;27;44769;-59
2022/04/21 01:53:17;;;;;;;1.45;1.35;;;19.50;47.20;;;;;;5083470;27;44050;-61
2022/04/21 01:55:44;;;;;;;1.10;1.10;;;19.40;47.20;;;;;;5087515;27;43514;-60
2022/04/21 01:58:11;;;;;;;1.40;1.30;;;19.40;47.10;;;;;;5086271;27;43553;-61
2022/04/21 02:00:40;;;;;;;1.48;1.38;;;19.50;47.30;;;;;;5085758;27;43883;-61
2022/04/21 02:03:08;;;;;;;1.38;1.27;;;19.40;47.20;;;;;;5081743;27;43489;-60
2022/04/21 02:05:36;;;;;;;1.23;1.13;;;19.40;47.20;;;;;;5086383;27;43435;-60
2022/04/21 02:08:04;;;;;;;1.40;1.30;;;19.40;47.30;;;;;;5065654;28;43466;-60
2022/04/21 02:10:31;;;;;;;1.70;1.30;;;19.40;47.30;;;;;;5079918;27;44975;-61
2022/04/21 02:12:59;;;;;;;1.10;1.10;;;19.40;47.30;;;;;;5089642;27;43518;-61
2022/04/21 02:15:28;;;;;;;1.52;1.42;;;19.40;47.20;;;;;;5088045;27;43427;-60
2022/04/21 02:17:55;;;;;;;1.40;1.30;;;19.40;47.30;;;;;;5075587;27;43448;-60
2022/04/21 02:20:23;;;;;;;1.30;1.20;;;19.40;47.30;;;;;;5082811;27;44717;-61
2022/04/21 02:22:50;;;;;;;1.25;1.25;;;19.40;47.20;;;;;;5086550;27;43826;-61
2022/04/21 02:25:18;;;;;;;1.17;1.17;;;19.40;47.30;;;;;;5092511;27;43546;-61
2022/04/21 02:27:47;;;;;;;1.40;1.30;;;19.40;47.20;;;;;;5087257;27;43546;-60
2022/04/21 02:30:17;;;;;;;1.88;1.45;;;19.40;47.30;;;;;;5085543;27;45128;-61
2022/04/21 02:32:45;;;;;;;1.20;1.20;;;19.30;47.10;;;;;;5091712;27;43688;-60
2022/04/21 02:35:13;;;;;;;1.30;1.30;;;19.30;47.20;;;;;;5079797;27;43582;-61
2022/04/21 02:37:44;;;;;;;1.48;1.38;;;19.30;47.90;;;;;;5080988;27;43540;-61
2022/04/21 02:40:12;;;;;;;1.58;1.48;;;19.30;47.20;;;;;;5089686;27;45154;-60
2022/04/21 02:42:39;;;;;;;1.30;1.20;;;19.30;47.30;;;;;;5092646;27;43480;-61
2022/04/21 02:45:08;;;;;;;1.50;1.40;;;19.30;47.30;;;;;;5076750;28;43555;-61
2022/04/21 02:47:37;;;;;;;1.33;1.23;;;19.20;47.10;;;;;;5077201;28;43559;-60
2022/04/21 02:50:06;;;;;;;1.10;1.10;;;19.20;47.30;;;;;;5085756;27;45137;-61
2022/04/21 02:52:38;;;;;;;1.35;1.25;;;19.20;47.20;;;;;;5087947;27;43506;-59
2022/04/21 02:57:53;;;;;;;1.10;1.10;;;19.20;47.20;;;;;;5071247;28;43457;-61
2022/04/21 03:00:21;;;;;;;1.38;1.27;;;19.20;47.20;;;;;;5089767;27;45142;-61
2022/04/21 03:02:48;;;;;;;1.30;1.20;;;19.20;47.30;;;;;;5085168;28;44082;-61
2022/04/21 03:05:17;;;;;;;1.30;1.20;;;19.20;47.20;;;;;;5086708;27;43431;-61
2022/04/21 03:07:44;;;;;;;1.30;1.23;;;19.20;47.30;;;;;;5083023;27;43398;-60
2022/04/21 03:10:11;;;;;;;1.20;1.13;;;19.20;47.30;;;;;;5082690;27;44177;-60
2022/04/21 03:12:39;;;;;;;1.13;1.13;;;19.20;47.20;;;;;;5084951;27;43525;-60
2022/04/21 03:15:10;;;;;;;1.10;1.10;;;19.20;47.20;;;;;;5086135;27;43526;-61
2022/04/21 03:17:38;;;;;;;1.10;1.10;;;19.20;47.20;;;;;;5083215;27;43541;-61
2022/04/21 03:20:05;;;;;;;1.40;1.30;;;19.20;47.20;;;;;;5088390;27;44934;-61
2022/04/21 03:25:20;;;;;;;1.00;1.00;;;19.10;47.20;;;;;;5088238;27;43394;-60
2022/04/21 03:27:50;;;;;;;1.23;1.13;;;19.10;47.20;;;;;;5089011;27;43574;-60
2022/04/21 03:30:18;;;;;;;1.30;1.20;;;19.10;47.20;;;;;;5074972;27;43993;-60
2022/04/21 03:32:45;;;;;;;1.15;1.15;;;19.10;47.30;;;;;;5079721;27;44303;-61
2022/04/21 03:35:12;;;;;;;1.17;1.17;;;19.10;47.10;;;;;;5087632;27;43475;-60
2022/04/21 03:37:40;;;;;;;1.25;1.20;;;19.00;47.10;;;;;;5081805;27;43521;-61
2022/04/21 03:40:08;;;;;;;0.80;0.80;;;19.00;47.10;;;;;;5090240;27;45179;-60
2022/04/21 03:42:35;;;;;;;1.33;1.23;;;19.00;47.20;;;;;;5077619;27;44054;-60
2022/04/21 03:45:03;;;;;;;1.10;1.10;;;19.00;47.10;;;;;;5081161;27;43490;-60
2022/04/21 03:47:30;;;;;;;1.05;1.05;;;19.00;47.20;;;;;;5073221;28;43439;-61
2022/04/21 03:49:57;;;;;;;1.00;1.00;;;19.00;47.20;;;;;;5062084;28;45363;-60
2022/04/21 03:52:25;;;;;;;1.48;1.27;;;19.00;47.20;;;;;;5081280;28;43818;-59
2022/04/21 03:54:52;;;;;;;1.23;0.93;;;19.00;47.10;;;;;;5081825;27;43484;-60
2022/04/21 03:57:19;;;;;;;1.38;1.27;;;19.00;47.10;;;;;;5087147;27;43971;-61
2022/04/21 03:59:46;;;;;;;1.08;1.08;;;19.00;47.10;;;;;;5090664;27;44833;-60
2022/04/21 04:02:14;;;;;;;0.90;0.90;;;19.00;47.10;;;;;;5086422;27;43452;-59
2022/04/21 04:04:41;;;;;;;1.33;1.10;;;19.00;47.10;;;;;;5082399;27;43543;-60
2022/04/21 04:12:40;;;;;;;1.10;1.10;;;18.90;47.20;;;;;;5077655;27;43465;-60
2022/04/21 04:15:09;;;;;;;1.10;1.08;;;18.90;47.20;;;;;;5067643;28;43379;-61
2022/04/21 04:17:37;;;;;;;1.05;1.05;;;18.90;47.20;;;;;;5083603;27;43499;-61
2022/04/21 04:20:07;;;;;;;1.13;1.00;;;18.90;47.20;;;;;;5074111;28;44638;-60
2022/04/21 04:22:36;;;;;;;1.30;1.20;;;18.90;47.20;;;;;;5074678;27;43488;-61
2022/04/21 04:25:04;;;;;;;1.10;1.10;;;18.90;47.20;;;;;;5083346;27;43481;-60
2022/04/21 04:27:31;;;;;;;0.93;0.93;;;18.80;47.20;;;;;;5083623;27;43550;-61
2022/04/21 04:29:59;;;;;;;1.05;1.05;;;18.80;47.20;;;;;;5066999;28;43991;-60
2022/04/21 04:32:26;;;;;;;1.42;1.33;;;18.80;47.20;;;;;;5074078;27;43388;-60
2022/04/21 04:34:53;;;;;;;1.42;1.33;;;18.80;47.20;;;;;;5078015;27;43506;-61
2022/04/21 04:37:21;;;;;;;1.10;1.10;;;18.80;47.10;;;;;;5068122;27;43534;-60
2022/04/21 04:39:49;;;;;;;1.10;1.10;;;18.80;47.20;;;;;;5077010;27;44908;-60
2022/04/21 04:42:21;;;;;;;1.10;1.10;;;18.80;47.20;;;;;;5087262;27;43836;-60
2022/04/21 04:46:34;;;;;;;1.25;1.15;;;18.80;47.20;;;;;;5086765;27;43379;-61
2022/04/21 04:47:40;;;;;;;1.13;1.13;;;18.80;47.30;;;;;;5083827;27;43514;-61
2022/04/21 04:50:08;;;;;;;1.30;1.30;;;18.70;47.10;;;;;;5086333;27;44828;-60
2022/04/21 04:52:36;;;;;;;1.20;1.20;;;18.70;47.20;;;;;;5089417;27;44088;-61
2022/04/21 04:55:07;;;;;;;1.30;1.20;;;18.70;47.20;;;;;;5083758;28;43532;-60
2022/04/21 04:57:34;;;;;;;1.45;1.40;;;18.70;47.30;;;;;;5088358;27;43588;-60
2022/04/21 05:00:10;;;;;;;1.13;1.13;;;18.70;47.30;;;;;;5065993;28;44017;-60
2022/04/21 05:02:38;;;;;;;1.38;1.25;;;18.70;47.30;;;;;;5081413;27;43524;-61
2022/04/21 05:05:06;;;;;;;1.20;1.20;;;18.70;47.30;;;;;;5084183;27;43457;-62
2022/04/21 05:07:34;;;;;;;1.40;1.30;;;18.70;47.30;;;;;;5090285;27;43485;-61
2022/04/21 05:10:03;;;;;;;1.38;1.30;;;18.70;47.30;;;;;;5088728;27;44782;-60
2022/04/21 05:12:30;;;;;;;1.60;1.50;;;18.70;47.30;;;;;;5085974;27;43813;-60
2022/04/21 05:14:58;;;;;;;1.60;1.50;;;18.60;47.30;;;;;;5084132;27;43499;-61
2022/04/21 05:17:27;;;;;;;1.80;1.65;;;18.60;47.40;;;;;;5086542;27;43605;-61
2022/04/21 05:20:15;;;;;;;1.65;1.55;;;18.60;47.50;;;;;;5089660;27;44683;-61
2022/04/21 05:22:47;;;;;;;1.70;1.60;;;18.60;47.40;;;;;;5083435;27;43493;-60
2022/04/21 05:25:15;;;;;;;1.63;1.50;;;18.60;47.50;;;;;;5087627;27;43429;-62
2022/04/21 05:27:42;;;;;;;2.15;1.65;;;18.60;47.50;;;;;;5079905;27;43534;-60
2022/04/21 05:32:58;;;;;;;1.70;1.60;;;18.50;47.50;;;;;;5085010;27;43704;-62
2022/04/21 05:35:26;;;;;;;2.03;1.65;;;18.60;47.60;;;;;;5080975;27;43451;-63
2022/04/21 05:37:54;;;;;;;1.80;1.70;;;18.50;47.50;;;;;;5075968;27;43463;-61
2022/04/21 05:40:21;;;;;;;1.58;1.48;;;18.50;47.50;;;;;;5089717;27;44194;-62
2022/04/21 05:42:54;;;;;;;1.60;1.50;;;18.50;47.60;;;;;;5081320;27;43499;-60
2022/04/21 05:45:22;;;;;;;1.75;1.60;;;18.50;47.60;;;;;;5091354;27;43398;-61
2022/04/21 05:47:50;;;;;;;1.60;1.50;;;18.50;47.50;;;;;;5093293;27;43666;-61
2022/04/21 05:50:17;;;;;;;1.40;1.30;;;18.50;47.50;;;;;;5084081;27;45105;-60
2022/04/21 05:52:48;;;;;;;1.60;1.50;;;18.50;47.50;;;;;;5091476;27;44151;-60
2022/04/21 05:55:16;;;;;;;1.47;1.37;;;18.50;47.50;;;;;;5089851;27;43508;-60
2022/04/21 05:57:45;;;;;;;1.50;1.38;;;18.50;47.50;;;;;;5065403;28;43467;-60
2022/04/21 06:00:12;;;;;;;1.92;1.50;;;18.50;47.40;;;;;;5083078;28;44885;-61
2022/04/21 06:02:39;;;;;;;1.42;1.33;;;18.50;47.40;;;;;;5083848;27;44004;-60
2022/04/21 06:05:07;;;;;;;1.42;1.40;;;18.50;47.50;;;;;;5091728;27;43446;-62
2022/04/21 06:07:34;;;;;;;1.55;1.45;;;18.50;47.40;;;;;;5089085;27;43539;-61
2022/04/21 06:10:03;;;;;;;1.50;1.40;;;18.50;47.50;;;;;;5087115;27;44476;-61
2022/04/21 06:12:30;;;;;;;1.40;1.30;;;18.50;47.40;;;;;;5084246;27;43471;-61
2022/04/21 06:14:57;;;;;;;1.50;1.40;;;18.40;47.50;;;;;;5092573;27;43512;-61
2022/04/21 06:17:25;;;;;;;1.40;1.30;;;18.50;47.50;;;;;;5086671;27;43640;-60
2022/04/21 06:19:52;;;;;;;1.25;1.25;;;18.50;47.50;;;;;;5069010;27;43801;-60
2022/04/21 06:22:19;;;;;;;1.50;1.40;;;18.40;47.40;;;;;;5090345;27;43951;-60
2022/04/21 06:24:46;;;;;;;1.50;1.40;;;18.50;47.40;;;;;;5091316;27;43503;-60
2022/04/21 06:27:14;;;;;;;1.70;1.48;;;18.50;47.40;;;;;;5080179;27;43505;-61
2022/04/21 06:29:41;;;;;;;1.25;1.25;;;18.50;47.40;;;;;;5080989;27;44041;-60
2022/04/21 06:32:08;;;;;;;1.38;1.30;;;18.50;47.40;;;;;;5081517;27;43642;-62
2022/04/21 06:34:36;;;;;;;1.38;1.30;;;18.50;47.40;;;;;;5087700;27;43470;-61
2022/04/21 06:37:03;;;;;;;1.40;1.30;;;18.50;47.30;;;;;;5086201;27;43654;-60
2022/04/21 06:39:31;;;;;;;1.15;1.13;;;18.40;47.40;;;;;;5076304;27;44840;-61
2022/04/21 06:41:58;;;;;;;1.50;1.40;;;18.40;47.30;;;;;;5081724;27;43995;-60
2022/04/21 06:50:06;;;;;;;1.25;1.20;;;18.40;47.30;;;;;;5080770;27;43887;-60
2022/04/21 06:52:34;;;;;;;1.40;1.30;;;18.40;47.30;;;;;;5070197;28;44002;-60
2022/04/21 06:55:01;;;;;;;1.50;1.40;;;18.40;47.30;;;;;;5054679;28;43493;-60
2022/04/21 06:57:28;;;;;;;1.33;1.23;;;18.40;48.00;;;;;;5067840;28;43607;-60
2022/04/21 06:59:56;;;;;;;1.20;1.10;;;18.40;47.30;;;;;;5065200;28;44922;-60
2022/04/21 07:02:37;;;;;;;1.30;1.30;;;18.40;47.30;;;;;;5071456;28;44034;-61
2022/04/21 07:05:08;;;;;;;1.05;1.05;;;18.40;47.30;;;;;;5058866;28;43427;-60
2022/04/21 07:07:36;;;;;;;1.17;1.08;;;18.40;47.30;;;;;;5057893;28;43472;-59
2022/04/21 07:10:04;;;;;;;1.33;1.23;;;18.40;47.30;;;;;;5066097;28;44004;-59
2022/04/21 07:12:32;;;;;;;1.90;1.35;;;18.40;47.30;;;;;;5053410;28;43560;-61
2022/04/21 07:15:11;;;;;;;1.30;1.20;;;18.40;47.30;;;;;;5056832;28;43917;-60
2022/04/21 07:17:39;;;;;;;1.25;1.25;;;18.40;47.30;;;;;;5065096;28;43386;-61
2022/04/21 07:20:09;;;;;;;1.15;1.15;;;18.40;47.60;;;;;;5067710;28;44212;-59
2022/04/21 07:22:37;;;;;;;1.17;1.10;;;18.40;47.40;;;;;;5036402;28;43732;-60
2022/04/21 07:25:07;;;;;;;1.52;1.40;;;18.40;47.30;;;;;;5067143;28;43499;-61
2022/04/21 07:27:36;;;;;;;2.97;1.33;;;18.40;47.40;;;;;;5067103;28;43515;-60
2022/04/21 07:30:05;;;;;;;5.10;2.05;;;18.40;47.60;;;;;;5071883;28;45434;-61
2022/04/21 07:32:33;;;;;;;3.33;1.90;;;18.40;47.80;;;;;;5064467;28;43967;-61
2022/04/21 07:35:01;;;;;;;5.47;2.28;;;18.40;47.70;;;;;;5067000;28;43436;-61
2022/04/21 07:37:30;;;;;;;2.72;2.00;;;18.40;47.60;;;;;;5068140;28;43497;-61
2022/04/21 07:39:57;;;;;;;1.92;1.80;;;18.50;47.50;;;;;;5066947;28;44639;-61
2022/04/21 07:42:25;;;;;;;3.30;2.00;;;18.50;47.40;;;;;;5066119;28;43986;-61
2022/04/21 07:44:53;;;;;;;2.00;1.77;;;18.60;47.30;;;;;;5075547;28;43487;-60
2022/04/21 07:47:23;;;;;;;3.75;1.80;;;18.60;47.30;;;;;;5070453;28;43507;-61
2022/04/21 07:49:50;;;;;;;2.03;1.70;;;18.70;47.30;;;;;;5062307;28;44266;-59
2022/04/21 07:55:25;;;;;;;3.30;2.00;;;18.80;47.30;;;;;;5059825;28;43484;-60
2022/04/21 07:57:55;;;;;;;1.98;1.85;;;18.90;47.20;;;;;;5052494;28;43451;-61
2022/04/21 08:00:23;;;;;;;1.60;1.50;;;18.90;47.80;;;;;;5061884;28;43919;-61
2022/04/21 08:02:51;;;;;;;3.72;1.90;;;19.00;47.10;;;;;;5050013;28;43866;-60
2022/04/21 08:05:21;;;;;;;3.17;1.83;;;19.00;46.90;;;;;;5028974;28;43381;-60
2022/04/21 08:07:49;;;;;;;4.13;2.15;;;19.10;46.90;;;;;;5059585;28;43465;-61
2022/04/21 08:10:20;;;;;;;2.95;1.80;;;19.10;46.90;;;;;;5067084;28;44040;-61
2022/04/21 08:12:49;;;;;;;2.60;2.40;;;19.20;46.80;;;;;;5058636;28;43709;-61
2022/04/21 08:15:31;;;;;;;3.80;2.30;;;19.20;46.80;;;;;;5009567;28;43574;-63
2022/04/21 08:18:01;;;;;;;2.55;2.35;;;19.30;46.70;;;;;;5025220;28;43458;-61
2022/04/21 08:20:30;;;;;;;2.70;2.20;;;19.40;46.60;;;;;;5065164;28;45162;-61
2022/04/21 08:22:57;;;;;;;5.30;2.25;;;19.40;46.40;;;;;;5056903;28;43494;-61
2022/04/21 08:34:22;;;;;;;3.60;2.10;;;19.80;46.40;;;;;;5041720;28;43535;-63
2022/04/21 08:36:54;;;;;;;4.25;2.10;;;19.90;46.60;;;;;;5054795;28;43443;-63
2022/04/21 08:39:21;;;;;;;3.58;2.45;;;20.10;46.80;;;;;;4976998;28;43558;-62
2022/04/21 08:41:53;;;;;;;5.15;2.00;;;20.10;46.60;;;;;;5063691;28;44054;-63
2022/04/21 08:44:21;;;;;;;3.67;2.03;;;20.30;46.60;;;;;;5059518;28;44059;-61
2022/04/21 08:46:49;;;;;;;5.85;2.00;;;20.40;46.40;;;;;;5065126;28;43481;-61
2022/04/21 08:49:21;;;;;;;5.38;2.05;;;20.50;46.40;;;;;;5069211;28;43497;-61
2022/04/21 08:51:49;;;;;;;3.17;2.00;;;20.60;46.20;;;;;;5078569;28;44731;-60
2022/04/21 08:54:17;;;;;;;4.40;1.83;;;20.80;46.30;;;;;;5074040;28;43465;-60
2022/04/21 08:56:44;;;;;;;4.65;1.98;;;20.90;46.10;;;;;;5063539;28;43494;-62
2022/04/21 08:59:11;;;;;;;4.18;2.00;;;21.00;45.70;;;;;;5074773;28;43506;-61
2022/04/21 09:01:39;;;;;;;2.15;1.55;;;21.10;45.70;;;;;;5078910;28;44028;-61
2022/04/21 09:04:06;;;;;;;3.35;1.60;;;21.20;45.50;;;;;;5071529;28;43431;-62
2022/04/21 09:06:38;;;;;;;2.00;1.73;;;21.40;45.50;;;;;;5063113;28;43479;-61
2022/04/21 09:09:16;;;;;;;3.53;2.03;;;21.50;45.20;;;;;;5078136;27;43490;-61
2022/04/21 09:11:45;;;;;;;2.78;1.85;;;21.60;45.00;;;;;;5076292;28;43909;-60
2022/04/21 09:14:17;;;;;;;2.47;1.52;;;21.70;44.80;;;;;;5075492;28;43562;-61
2022/04/21 09:16:45;;;;;;;1.85;1.67;;;21.80;44.70;;;;;;5075237;28;43526;-60
2022/04/21 09:19:16;;;;;;;1.67;1.58;;;21.90;44.60;;;;;;5081994;28;43470;-61
2022/04/21 09:21:44;;;;;;;2.35;1.88;;;21.90;44.50;;;;;;5074832;28;44233;-61
2022/04/21 09:24:27;;;;;;;1.70;1.58;;;22.00;44.50;;;;;;5056082;28;43923;-60
2022/04/21 09:26:57;;;;;;;2.50;1.48;;;22.00;44.70;;;;;;5046174;28;43566;-61
2022/04/21 09:29:33;;;;;;;1.48;1.38;;;22.00;44.90;;;;;;5064870;28;43597;-61
2022/04/21 09:32:03;;;;;;;2.80;1.70;;;22.00;44.90;;;;;;5074306;28;44692;-60
2022/04/21 09:34:35;;;;;;;2.67;1.58;;;22.00;45.40;;;;;;5055364;28;44918;-60
2022/04/21 09:37:10;;;;;;;1.83;1.38;;;22.00;44.80;;;;;;5070101;28;43824;-61
2022/04/21 09:39:40;;;;;;;1.42;1.33;;;22.00;45.00;;;;;;5049293;28;43651;-60
2022/04/21 09:42:08;;;;;;;2.35;1.35;;;22.00;44.90;;;;;;5071664;28;45030;-61
2022/04/21 09:47:33;;;;;;;1.42;1.20;;;21.90;44.90;;;;;;5073111;28;43574;-62
2022/04/21 09:50:13;;;;;;;2.25;1.20;;;21.90;44.80;;;;;;5054105;28;43494;-61
2022/04/21 09:52:54;;;;;;;2.20;1.35;;;21.90;45.10;;;;;;5043970;28;44089;-61
2022/04/21 09:55:24;;;;;;;1.40;1.30;;;21.90;45.20;;;;;;5071629;28;44118;-61
2022/04/21 09:58:12;;;;;;;1.33;1.13;;;21.80;45.20;;;;;;5077124;28;43471;-62
2022/04/21 10:00:41;;;;;;;1.63;1.20;;;21.80;45.30;;;;;;5068760;28;43856;-60
2022/04/21 10:03:10;;;;;;;1.25;1.10;;;21.80;45.40;;;;;;5068321;28;44010;-60
2022/04/21 10:05:42;;;;;;;1.52;1.42;;;21.70;45.30;;;;;;5073706;28;43965;-60
2022/04/21 10:08:10;;;;;;;1.65;1.30;;;21.70;45.10;;;;;;5073538;28;43497;-60
2022/04/21 10:10:50;;;;;;;1.63;1.30;;;21.60;45.20;;;;;;5056880;28;43473;-61
2022/04/21 10:13:19;;;;;;;1.30;1.20;;;21.60;45.10;;;;;;5063203;28;45002;-61
2022/04/21 10:15:47;;;;;;;1.42;1.20;;;21.60;45.20;;;;;;5068939;28;44016;-60
2022/04/21 10:18:16;;;;;;;2.75;1.45;;;21.60;45.30;;;;;;5066826;28;43452;-61
2022/04/21 10:20:45;;;;;;;1.40;1.30;;;21.50;45.30;;;;;;5071203;28;43582;-61
2022/04/21 10:23:16;;;;;;;1.35;1.25;;;21.50;45.40;;;;;;5038592;28;44269;-60
2022/04/21 10:25:44;;;;;;;1.42;1.25;;;21.50;45.40;;;;;;5038617;28;43587;-60
2022/04/21 10:28:43;;;;;;;1.10;1.00;;;21.50;45.40;;;;;;5072291;28;43499;-60
2022/04/21 10:31:32;;;;;;;1.65;1.25;;;21.50;45.50;;;;;;4991861;28;43689;-61
2022/04/21 10:34:04;;;;;;;1.80;1.10;;;21.40;45.50;;;;;;5039340;28;44979;-61
2022/04/21 10:36:35;;;;;;;1.52;1.20;;;21.40;45.60;;;;;;5067274;28;44145;-61
2022/04/21 10:39:09;;;;;;;1.45;1.20;;;21.40;45.60;;;;;;5072640;28;43448;-61
2022/04/21 10:41:38;;;;;;;1.15;1.00;;;21.40;45.70;;;;;;5063233;28;43463;-61
2022/04/21 10:44:13;;;;;;;1.58;1.30;;;21.40;45.70;;;;;;5049770;28;44392;-60
2022/04/21 10:46:41;;;;;;;1.55;1.00;;;21.40;45.70;;;;;;5033963;28;43500;-61
2022/04/21 10:49:58;;;;;;;1.30;1.20;;;21.40;45.70;;;;;;5067229;28;43453;-60
2022/04/21 10:57:50;;;;;;;1.20;1.10;;;21.40;45.90;;;;;;5079763;27;43469;-60
2022/04/21 11:00:26;;;;;;;1.10;1.10;;;21.40;45.80;;;;;;5082596;27;43484;-61
2022/04/21 11:03:04;;;;;;;2.72;0.90;;;21.40;45.90;;;;;;5084768;27;43578;-60
2022/04/21 11:05:33;;;;;;;0.98;0.98;;;21.40;45.90;;;;;;5069129;27;44887;-60
2022/04/21 11:08:10;;;;;;;1.67;1.08;;;21.40;45.80;;;;;;5082513;27;44090;-60
2022/04/21 11:10:45;;;;;;;1.10;1.00;;;21.40;45.90;;;;;;5066102;27;43489;-60
2022/04/21 11:13:19;;;;;;;1.85;1.10;;;21.40;46.00;;;;;;5084567;27;43522;-61
2022/04/21 11:15:50;;;;;;;1.60;1.20;;;21.40;46.00;;;;;;5080779;27;43780;-60
2022/04/21 11:18:17;;;;;;;;;;;21.40;45.90;;;;;;5049603;27;43674;-60
2022/04/21 11:20:50;;;;;;;1.60;1.10;;;21.40;46.00;;;;;;5063238;27;43516;-60
2022/04/21 11:23:37;;;;;;;1.95;1.17;;;21.40;46.00;;;;;;5082536;27;44047;-60
2022/04/21 11:26:08;;;;;;;1.10;1.00;;;21.40;46.00;;;;;;5071346;27;45197;-61
2022/04/21 11:28:44;;;;;;;1.05;1.05;;;21.40;46.00;;;;;;5068069;27;44120;-61
2022/04/21 11:31:12;;;;;;;1.38;1.25;;;21.40;46.00;;;;;;5067187;27;43450;-60
2022/04/21 11:33:40;;;;;;;1.10;1.00;;;21.40;45.80;;;;;;5058593;27;43445;-61
2022/04/21 11:36:09;;;;;;;1.33;1.17;;;21.40;45.80;;;;;;5061398;27;44111;-60
2022/04/21 11:38:41;;;;;;;0.90;0.90;;;21.40;46.00;;;;;;5087291;27;44086;-60
2022/04/21 11:41:10;;;;;;;2.20;0.90;;;21.40;45.90;;;;;;5067619;28;43538;-60
2022/04/21 11:43:50;;;;;;;1.50;1.40;;;21.50;45.80;;;;;;5067482;27;43446;-61
2022/04/21 11:46:21;;;;;;;1.52;1.25;;;21.50;45.70;;;;;;5085777;27;45055;-60
2022/04/21 11:48:58;;;;;;;0.85;0.85;;;21.50;45.70;;;;;;5081146;27;43955;-61
2022/04/21 11:51:26;;;;;;;2.80;1.13;;;21.50;45.70;;;;;;5082130;27;43541;-60
2022/04/21 11:53:55;;;;;;;1.70;1.30;;;21.60;45.70;;;;;;5083305;27;43629;-60
2022/04/21 11:56:22;;;;;;;1.20;1.10;;;21.60;45.60;;;;;;5084421;27;43795;-60
2022/04/21 11:58:49;;;;;;;1.05;1.00;;;21.60;45.80;;;;;;5083519;27;43924;-60
2022/04/21 12:06:57;;;;;;;1.35;1.25;;;21.60;45.80;;;;;;5082066;27;44067;-61
2022/04/21 12:09:26;;;;;;;1.10;1.00;;;21.60;45.80;;;;;;5083299;27;43514;-59
2022/04/21 12:11:57;;;;;;;0.95;0.90;;;21.60;45.80;;;;;;5080802;27;43555;-61
2022/04/21 12:14:25;;;;;;;1.75;1.25;;;21.60;45.90;;;;;;5086595;27;43539;-61
2022/04/21 12:16:57;;;;;;;1.33;0.95;;;21.70;45.90;;;;;;5076709;27;44792;-60
2022/04/21 12:19:32;;;;;;;1.33;1.27;;;21.60;45.80;;;;;;5066824;27;43791;-60
2022/04/21 12:22:00;;;;;;;1.48;1.05;;;21.70;45.80;;;;;;5080394;27;43403;-60
2022/04/21 12:24:37;;;;;;;1.00;1.00;;;21.70;45.80;;;;;;5074639;27;43570;-61
2022/04/21 12:27:13;;;;;;;0.93;0.90;;;21.70;45.70;;;;;;5078795;27;43754;-60
2022/04/21 12:29:51;;;;;;;1.27;0.95;;;21.70;45.70;;;;;;5060237;27;43930;-61
2022/04/21 12:32:22;;;;;;;1.30;1.20;;;21.70;45.90;;;;;;5072744;27;43484;-60
2022/04/21 12:34:50;;;;;;;1.05;0.93;;;21.70;45.80;;;;;;5071065;27;43645;-60
2022/04/21 12:37:27;;;;;;;1.00;1.00;;;21.80;45.80;;;;;;5067107;27;43898;-61
2022/04/21 12:40:04;;;;;;;1.30;1.20;;;21.70;46.00;;;;;;5074932;27;43823;-60
2022/04/21 12:42:50;;;;;;;1.40;0.93;;;21.80;46.00;;;;;;5068980;27;44134;-61
2022/04/21 12:45:18;;;;;;;1.10;1.10;;;21.90;46.10;;;;;;5060762;28;43489;-60
2022/04/21 12:47:47;;;;;;;1.88;1.20;;;21.90;46.40;;;;;;5082705;27;43785;-60
2022/04/21 12:50:18;;;;;;;1.60;1.10;;;21.90;46.50;;;;;;5082741;27;43510;-60
2022/04/21 12:52:55;;;;;;;1.10;1.10;;;21.90;46.60;;;;;;5081512;27;43565;-60
2022/04/21 12:55:30;;;;;;;1.08;1.08;;;21.90;46.40;;;;;;5082301;27;43610;-61
2022/04/21 12:58:01;;;;;;;1.65;1.00;;;22.00;46.40;;;;;;5066996;27;43788;-60
2022/04/21 13:00:29;;;;;;;0.88;0.88;;;21.90;46.40;;;;;;5085943;27;44287;-60
2022/04/21 13:02:56;;;;;;;1.40;1.30;;;21.90;46.30;;;;;;5082688;27;44097;-60
2022/04/21 13:05:23;;;;;;;0.98;0.98;;;22.00;46.40;;;;;;5081641;27;43465;-61
2022/04/21 13:07:51;;;;;;;1.27;1.10;;;22.00;46.30;;;;;;5082810;27;45140;-61
2022/04/21 13:10:21;;;;;;;0.90;0.90;;;22.00;46.20;;;;;;5066005;27;43464;-60
2022/04/21 13:12:49;;;;;;;0.90;0.90;;;22.00;46.00;;;;;;5075694;28;43618;-60
2022/04/21 13:15:16;;;;;;;2.00;1.02;;;22.00;46.20;;;;;;5072683;27;43661;-60
2022/04/21 13:17:44;;;;;;;0.90;0.90;;;22.10;46.10;;;;;;5061321;27;45137;-60
2022/04/21 13:21:52;;;;;;;1.27;0.95;;;22.10;46.10;;;;;;5082488;27;43497;-60
2022/04/21 13:23:05;;;;;;;2.35;0.90;;;22.10;46.00;;;;;;5069714;27;44142;-60
2022/04/21 13:25:40;;;;;;;0.90;0.90;;;22.10;45.80;;;;;;5074757;27;43468;-59
2022/04/21 13:28:08;;;;;;;1.00;1.00;;;22.20;46.00;;;;;;5082566;27;44234;-60
2022/04/21 13:30:35;;;;;;;1.63;0.95;;;22.20;46.00;;;;;;5053561;28;43528;-60
2022/04/21 13:33:21;;;;;;;1.23;1.05;;;22.20;46.10;;;;;;5082808;27;43487;-60
2022/04/21 13:35:53;;;;;;;0.90;0.90;;;22.20;46.10;;;;;;5078216;27;43534;-59
2022/04/21 13:38:21;;;;;;;1.10;1.00;;;22.20;46.00;;;;;;5035783;27;45015;-59
2022/04/21 13:40:49;;;;;;;1.50;1.02;;;22.20;45.90;;;;;;5081318;27;43811;-60
2022/04/21 13:43:16;;;;;;;1.40;1.00;;;22.20;46.00;;;;;;5077948;27;43517;-60
2022/04/21 13:46:04;;;;;;;1.25;1.10;;;22.20;45.80;;;;;;5063488;27;43470;-60
2022/04/21 13:48:32;;;;;;;1.23;0.98;;;22.20;45.80;;;;;;5066052;27;44004;-59
2022/04/21 13:50:59;;;;;;;0.82;0.82;;;22.20;45.80;;;;;;5075151;27;43880;-60
2022/04/21 13:53:26;;;;;;;1.73;1.15;;;22.20;46.00;;;;;;5069348;28;43606;-60